createdAt,value
2023-01-16T00:02:16.606Z,97.36
2023-01-16T00:17:17.698Z,99.23
2023-01-16T00:32:18.459Z,98.82
2023-01-16T00:47:19.167Z,99.54
2023-01-16T01:02:22.504Z,99.99
2023-01-16T01:17:24.613Z,99.99
2023-01-16T01:32:25.687Z,99.99
2023-01-16T01:47:26.442Z,99.99
2023-01-16T02:02:29.060Z,99.99
2023-01-16T02:17:33.834Z,99.99
2023-01-16T02:32:34.037Z,99.99
2023-01-16T02:47:34.662Z,99.99
2023-01-16T03:02:36.985Z,99.99
2023-01-16T03:17:38.408Z,99.99
2023-01-16T03:32:40.359Z,99.99
2023-01-16T03:47:41.384Z,99.99
2023-01-16T04:02:41.534Z,99.99
2023-01-16T04:17:42.430Z,99.99
2023-01-16T04:32:43.367Z,99.99
2023-01-16T04:47:44.501Z,99.99
2023-01-16T05:02:45.143Z,99.99
2023-01-16T05:17:45.727Z,99.99
2023-01-16T05:32:48.032Z,99.99
2023-01-16T05:47:49.907Z,99.99
2023-01-16T06:02:50.593Z,99.99
2023-01-16T06:17:53.009Z,99.99
2023-01-16T06:32:55.333Z,99.99
2023-01-16T06:47:55.813Z,99.99
2023-01-16T07:02:56.942Z,99.99
2023-01-16T07:17:58.809Z,99.99
2023-01-16T07:33:00.456Z,99.99
2023-01-16T07:48:02.311Z,99.99
2023-01-16T08:03:04.222Z,99.99
2023-01-16T08:18:05.229Z,99.99
2023-01-16T08:33:05.882Z,99.99
2023-01-16T08:48:07.720Z,99.99
2023-01-16T09:03:08.423Z,99.99
2023-01-16T09:18:08.930Z,99.13
2023-01-16T09:33:09.557Z,92.50
2023-01-16T09:48:10.160Z,86.76
2023-01-16T10:03:10.477Z,85.41
2023-01-16T10:18:14.056Z,80.91
2023-01-16T10:33:17.659Z,79.39
2023-01-16T10:48:21.935Z,77.30
2023-01-16T11:03:23.833Z,76.31
2023-01-16T11:18:25.687Z,74.98
2023-01-16T11:33:26.313Z,72.72
2023-01-16T11:48:26.607Z,75.01
2023-01-16T12:03:30.690Z,75.73
2023-01-16T12:18:37.835Z,76.45
2023-01-16T12:33:40.279Z,75.52
2023-01-16T12:48:41.203Z,77.51
2023-01-16T13:03:42.778Z,76.70
2023-01-16T13:18:43.339Z,77.51
2023-01-16T13:33:45.490Z,75.60
2023-01-16T13:48:45.790Z,75.73
2023-01-16T14:03:47.710Z,76.97
2023-01-16T14:18:48.300Z,77.62
2023-01-16T14:33:49.253Z,77.97
2023-01-16T14:48:49.821Z,77.45
2023-01-16T15:04:01.111Z,79.14
2023-01-16T15:19:06.295Z,80.79
2023-01-16T15:34:07.171Z,84.17
2023-01-16T15:49:25.463Z,85.72
2023-01-16T16:04:17.053Z,87.46
2023-01-16T16:19:17.658Z,86.94
2023-01-16T16:34:18.612Z,88.07
2023-01-16T16:49:19.200Z,89.25
2023-01-16T17:04:19.871Z,90.12
2023-01-16T17:19:20.849Z,89.29
2023-01-16T17:34:21.596Z,89.71
2023-01-16T17:49:22.674Z,90.12
2023-01-16T18:04:24.601Z,89.61
2023-01-16T18:19:25.174Z,89.71
2023-01-16T18:34:26.813Z,89.61
2023-01-16T18:49:27.319Z,88.78
2023-01-16T19:04:29.248Z,88.67
2023-01-16T19:19:30.239Z,89.40
2023-01-16T19:34:30.739Z,88.98
2023-01-16T19:49:31.690Z,89.23
2023-01-16T20:04:33.916Z,89.40
2023-01-16T20:19:34.563Z,89.54
2023-01-16T20:34:35.900Z,88.61
2023-01-16T20:49:37.237Z,89.40
2023-01-16T21:04:37.568Z,89.61
2023-01-16T21:19:38.881Z,89.09
2023-01-16T21:34:40.351Z,89.09
2023-01-16T21:49:40.940Z,89.09
2023-01-16T22:04:43.267Z,89.96
2023-01-16T22:19:44.721Z,90.58
2023-01-16T22:34:45.408Z,90.26
2023-01-16T22:49:46.676Z,90.37
2023-01-16T23:04:49.433Z,90.37
2023-01-16T23:19:50.821Z,91.09
2023-01-16T23:34:52.689Z,91.66
2023-01-16T23:49:53.326Z,91.97
